createdAt,value
2019-06-01T05:12:01.954Z,281.46
2019-06-01T05:22:01.751Z,287.90
2019-06-01T05:32:03.963Z,334.37
2019-06-01T05:42:01.661Z,354.87
2019-06-01T05:52:01.443Z,419.60
2019-06-01T06:02:01.709Z,459.56
2019-06-01T06:12:01.722Z,484.08
2019-06-01T06:22:01.151Z,464.00
2019-06-01T06:32:01.830Z,534.76
2019-06-01T06:42:01.903Z,590.97
2019-06-01T06:52:01.789Z,711.84
2019-06-01T07:02:01.927Z,882.26
2019-06-01T07:12:02.218Z,903.44
2019-06-01T07:22:04.036Z,963.70
2019-06-01T07:32:01.751Z,980.07
2019-06-01T07:42:01.883Z,950.64
2019-06-01T07:52:11.997Z,1033.34
2019-06-01T08:02:01.376Z,970.86
2019-06-01T08:12:03.993Z,1110.41
2019-06-01T08:22:01.807Z,1121.04
2019-06-01T08:32:01.882Z,1235.22
2019-06-01T08:42:01.839Z,1176.97
2019-06-01T08:52:02.019Z,1267.06
2019-06-01T09:02:01.871Z,1146.82
2019-06-01T09:12:01.859Z,1132.94
2019-06-01T09:22:01.892Z,1369.52
2019-06-01T09:32:01.390Z,1284.47
2019-06-01T09:42:01.892Z,1187.46
2019-06-01T09:52:02.473Z,1330.67
2019-06-01T10:02:02.101Z,1369.06
2019-06-01T10:12:01.859Z,1274.12
2019-06-01T10:22:01.441Z,1332.22
2019-06-01T10:32:02.099Z,1503.42
2019-06-01T10:42:01.370Z,1392.58
2019-06-01T10:52:01.140Z,1440.59
2019-06-01T11:02:02.113Z,1425.90
2019-06-01T11:12:00.974Z,1467.51
2019-06-01T11:22:02.087Z,1468.53
2019-06-01T11:32:01.034Z,1434.22
2019-06-01T11:42:00.959Z,1593.63
2019-06-01T11:52:01.770Z,1524.87
2019-06-01T12:02:01.121Z,1606.57
2019-06-01T12:12:01.098Z,1610.94
2019-06-01T12:22:01.269Z,1588.76
2019-06-01T12:32:01.236Z,1612.96
2019-06-01T12:42:00.999Z,1564.26
2019-06-01T12:52:01.696Z,1730.62
2019-06-01T13:02:01.865Z,1683.04
2019-06-01T13:12:00.962Z,1711.78
2019-06-01T13:22:02.074Z,1664.67
2019-06-01T13:32:01.447Z,1722.74
2019-06-01T13:42:01.305Z,1791.38
2019-06-01T13:52:01.282Z,1901.63
2019-06-01T14:02:01.148Z,1827.69
2019-06-01T14:12:01.568Z,1812.38
2019-06-01T14:22:01.724Z,1837.25
2019-06-01T14:32:01.385Z,1842.04
2019-06-01T14:42:01.234Z,1888.10
2019-06-01T14:52:01.496Z,1945.63
2019-06-01T15:02:01.378Z,1797.72
2019-06-01T15:12:01.589Z,1823.77
2019-06-01T15:22:03.533Z,1876.08
2019-06-01T15:32:02.409Z,1766.56
2019-06-01T15:42:01.418Z,1927.33
2019-06-01T15:52:02.777Z,1917.32
2019-06-01T16:02:03.399Z,1857.64
2019-06-01T16:12:01.758Z,1871.03
2019-06-01T16:22:02.649Z,1834.98
2019-06-01T16:32:02.957Z,1703.97
2019-06-01T16:42:02.138Z,1756.60
2019-06-01T16:52:03.253Z,1723.03
2019-06-01T17:02:03.383Z,1760.98
2019-06-01T17:12:03.051Z,1858.01
2019-06-01T17:22:03.492Z,1733.10
2019-06-01T17:32:16.747Z,1733.08
2019-06-01T17:42:02.525Z,1676.83
2019-06-01T17:52:01.908Z,1571.00
2019-06-01T18:02:03.529Z,1576.61
2019-06-01T18:12:02.161Z,1594.08
2019-06-01T18:22:02.621Z,1331.81
2019-06-01T18:32:03.003Z,1133.04
2019-06-01T18:42:02.059Z,1058.44
2019-06-01T18:52:02.150Z,1052.00
2019-06-01T19:02:02.319Z,1034.65
